Main page
METAR-TAF:

Airports :

Leeds Bradford, England

Leeds Bradford International Airport

latitude: 53-52N, longitude: 001-39W, elevation: 208 m

Current weather observation

The report was made 26 minutes ago, at 23:20 UTC
Wind 7 kt from the Southwest, varying between South and West
Temperature 10°C
Humidity 87%
Pressure 1009 hPa
Visibility 10 km or more
Few clouds at a height of 2000 ft

METAR: EGNM 292320Z 22007KT 170V260 9999 FEW020 10/08 Q1009

Time: 00:46 (23:46 UTC)

Forecast

The report was made 51 minutes ago, at 22:55 UTC
Forecast valid from 30 at 00 UTC to 30 at 24 UTC
Wind 8 kt from the West/Southwest
Visibility 10 km or more
Few clouds at a height of 3000 ft
Temporary
from 30 at 00 UTC to 30 at 20 UTC
Visibility: 8000 m
rain showers
Probability 30% :
Temporary
from 30 at 08 UTC to 30 at 15 UTC
Visibility: 4000 m
heavy rain showers

TAF: EGNM 292255Z 3000/3024 25008KT 9999 FEW030 TEMPO 3000/3020 8000 SHRA PROB30 TEMPO 3008/3015 4000 +SHRA

METAR-TAF

Weather observations and forecasts of more than 4000 airports (METAR and TAF reports).

The available stations are represented by yellow and red dots on the map.

Hover mouse over dot to see the name of the station.

Then click to see weather observations and forecasts.

To change the map : click on the green buttons with a black cross to zoom in, on the green button with a dash to zoom out, or on the green arrows for adjacent maps.


METAR-TAF: